< < Back
Terminal Aerodrome Forecast


Current Version              Previous Versions:   1  2  3  4  5  6  7  8  9  

Terminal Aerodrome Forecast

017
FTUS44 KMRX 291720
TAFCHA
TAF
KCHA 291720Z 2918/3018 16009KT P6SM VCTS SCT040CB BKN080
     FM300100 00000KT P6SM SCT040 BKN140
     FM301400 14005KT P6SM SCT050 BKN080=



Latest METAR

929
SAUS80 KWBC 291900 RRB
MTRCHA
METAR KCHA 291853Z COR 16007KT 10SM SCT039 SCT050 BKN150 29/19 A3013 RMK
AO2 SLP194 T02890194


USA.gov is the U.S. government's official web portal to all federal, state and local government web resources and services.